Terminal Aerodrome Forecast
Issued by NWS

Home | Current Version | Previous Version | Text Only | Print | Product List | Glossary On
Versions: 1 2 3 4 5 6 7 8 9 10 11 12 13 14 15 16 17
970
FTUS45 KTFX 191120
TAFCTB
TAF
KCTB 191120Z 1912/2012 33007KT 4SM -SN BR BKN040 OVC100
     FM191300 33006KT 4SM -SN BR BKN025 OVC100
     FM191800 33007KT P6SM BKN080
     FM200100 25006KT P6SM FEW060 SCT200=

USA.gov is the U.S. government's official web portal to all federal, state and local government web resources and services.